Time;durP1;ratioP1;P1;durP2;ratioP2;P2;SDS_P1;SDS_P2;PMS_P1;PMS_P2;Temp;Humidity;BMP_temperature;BMP_pressure;BME280_temperature;BME280_humidity;BME280_pressure;Samples;Min_cycle;Max_cycle;Signal;HPM_P1;HPM_P2
2021/01/20 00:00:03;;;;;;;21.27;18.73;;;7.10;95.90;;;;;;5033574;28;20137;-81
2021/01/20 00:02:29;;;;;;;20.08;17.40;;;7.10;96.10;;;;;;5051065;28;20074;-80
2021/01/20 00:04:55;;;;;;;20.75;17.65;;;7.10;96.20;;;;;;5056743;28;20056;-80
2021/01/20 00:07:20;;;;;;;20.63;16.38;;;7.10;96.20;;;;;;5052101;28;20033;-80
2021/01/20 00:09:46;;;;;;;21.35;16.58;;;7.10;96.20;;;;;;5022755;28;20057;-80
2021/01/20 00:12:12;;;;;;;18.25;16.13;;;7.00;96.10;;;;;;5049664;28;20041;-80
2021/01/20 00:14:38;;;;;;;17.67;15.88;;;7.00;96.20;;;;;;5034129;28;20136;-80
2021/01/20 00:17:04;;;;;;;19.17;14.73;;;7.00;96.00;;;;;;5063316;28;20072;-80
2021/01/20 00:19:30;;;;;;;18.98;16.48;;;7.00;95.90;;;;;;5056365;28;20088;-80
2021/01/20 00:21:56;;;;;;;17.77;15.40;;;7.00;96.00;;;;;;5056324;28;20064;-80
2021/01/20 00:24:22;;;;;;;18.67;16.38;;;7.00;96.00;;;;;;5022413;28;20838;-80
2021/01/20 00:26:48;;;;;;;22.45;16.95;;;7.00;95.80;;;;;;5044781;28;20438;-80
2021/01/20 00:29:14;;;;;;;21.65;15.80;;;7.00;95.90;;;;;;5029964;28;20060;-80
2021/01/20 00:31:39;;;;;;;19.65;17.38;;;7.10;95.90;;;;;;5049176;28;20051;-80
2021/01/20 00:34:05;;;;;;;17.73;15.43;;;7.00;96.00;;;;;;5062506;28;20048;-80
2021/01/20 00:36:31;;;;;;;17.08;15.25;;;7.00;96.00;;;;;;5026587;28;20132;-80
2021/01/20 00:38:57;;;;;;;19.83;15.40;;;7.00;96.00;;;;;;5059583;28;20101;-81
2021/01/20 00:41:23;;;;;;;20.80;17.17;;;7.00;95.80;;;;;;5025353;28;20116;-80
2021/01/20 00:43:48;;;;;;;21.48;17.13;;;7.00;95.90;;;;;;5047663;28;20039;-81
2021/01/20 00:46:14;;;;;;;18.45;15.68;;;7.00;95.90;;;;;;5027967;28;20081;-81
2021/01/20 00:48:40;;;;;;;12.70;8.32;;;7.00;95.90;;;;;;5065092;28;20060;-81
2021/01/20 00:51:09;;;;;;;16.83;13.18;;;7.00;95.40;;;;;;5040541;28;20062;-80
2021/01/20 00:53:35;;;;;;;19.27;15.35;;;7.00;95.60;;;;;;5023652;28;20151;-80
2021/01/20 00:56:01;;;;;;;16.38;14.55;;;7.00;95.80;;;;;;5015168;28;20183;-81
2021/01/20 00:58:26;;;;;;;18.02;14.30;;;7.00;95.80;;;;;;5062095;28;20079;-80
2021/01/20 01:00:52;;;;;;;16.48;12.65;;;7.00;95.70;;;;;;5042265;28;20493;-80
2021/01/20 01:03:18;;;;;;;18.67;14.57;;;7.00;95.50;;;;;;5041975;28;20406;-81
2021/01/20 01:05:44;;;;;;;15.77;13.68;;;7.00;95.50;;;;;;5061741;28;20044;-81
2021/01/20 01:08:10;;;;;;;19.90;14.32;;;6.90;95.40;;;;;;5038151;28;20041;-80
2021/01/20 01:10:35;;;;;;;16.48;13.75;;;7.00;95.30;;;;;;5043960;28;20052;-80
2021/01/20 01:13:02;;;;;;;17.08;15.07;;;7.00;95.20;;;;;;5027602;28;20068;-80
2021/01/20 01:15:28;;;;;;;17.38;14.40;;;7.00;95.40;;;;;;5038121;28;20655;-80
2021/01/20 01:17:54;;;;;;;16.42;13.30;;;7.00;95.30;;;;;;5044530;28;20125;-81
2021/01/20 01:20:20;;;;;;;14.52;12.63;;;7.00;95.20;;;;;;5031303;28;20041;-81
2021/01/20 01:22:45;;;;;;;16.92;13.95;;;7.00;95.00;;;;;;5024029;28;20164;-81
2021/01/20 01:25:11;;;;;;;15.82;13.35;;;7.00;95.20;;;;;;5025875;28;20056;-81
2021/01/20 01:27:37;;;;;;;18.20;14.07;;;7.00;95.30;;;;;;5039682;28;20444;-80
2021/01/20 01:30:04;;;;;;;18.63;15.50;;;7.00;95.40;;;;;;5051383;28;20037;-80
2021/01/20 01:32:30;;;;;;;18.67;14.98;;;7.00;95.30;;;;;;5050035;28;20145;-80
2021/01/20 01:34:55;;;;;;;16.70;13.50;;;6.90;95.30;;;;;;5020081;28;20497;-80
2021/01/20 01:37:21;;;;;;;18.70;14.80;;;7.00;95.30;;;;;;5051054;28;20110;-80
2021/01/20 01:39:47;;;;;;;20.13;14.65;;;7.00;95.40;;;;;;5043398;28;20037;-80
2021/01/20 01:42:13;;;;;;;21.13;16.02;;;7.00;95.20;;;;;;5035992;28;20091;-80
2021/01/20 01:44:39;;;;;;;18.85;15.05;;;7.00;95.40;;;;;;5037659;28;20049;-80
2021/01/20 01:47:05;;;;;;;17.27;12.75;;;6.90;95.20;;;;;;5032720;28;20540;-80
2021/01/20 01:49:31;;;;;;;18.83;12.63;;;7.00;95.00;;;;;;5043148;28;20049;-80
2021/01/20 01:52:00;;;;;;;14.43;11.82;;;7.00;95.00;;;;;;5048005;28;20074;-81
2021/01/20 01:54:28;;;;;;;19.63;15.05;;;7.00;95.20;;;;;;5049061;28;20141;-81
2021/01/20 01:56:54;;;;;;;18.92;14.05;;;7.00;95.30;;;;;;5048032;28;20040;-81
2021/01/20 01:59:20;;;;;;;19.55;15.65;;;7.00;95.10;;;;;;5021697;28;20897;-80
2021/01/20 02:01:46;;;;;;;16.98;15.18;;;7.00;95.10;;;;;;5039923;28;20036;-80
2021/01/20 02:04:12;;;;;;;18.13;13.70;;;7.00;95.10;;;;;;5040898;28;20074;-80
2021/01/20 02:06:38;;;;;;;16.58;12.25;;;7.00;94.90;;;;;;5060908;28;20029;-80
2021/01/20 02:09:04;;;;;;;18.67;14.77;;;7.00;94.90;;;;;;5021375;28;20068;-81
2021/01/20 02:11:43;;;;;;;19.80;15.73;;;7.00;95.10;;;;;;5027460;28;20063;-81
2021/01/20 02:14:29;;;;;;;20.92;14.88;;;7.00;95.10;;;;;;5038657;28;20144;-81
2021/01/20 02:17:18;;;;;;;16.75;14.95;;;7.00;94.70;;;;;;5042000;28;20100;-81
2021/01/20 02:20:15;;;;;;;18.30;14.88;;;7.00;95.00;;;;;;5020385;28;20144;-80
2021/01/20 02:22:44;;;;;;;21.80;15.27;;;6.90;95.00;;;;;;5039237;28;20030;-80
2021/01/20 02:25:53;;;;;;;19.77;16.42;;;6.90;95.20;;;;;;5028374;28;20038;-80
2021/01/20 02:28:23;;;;;;;19.75;15.30;;;6.90;95.10;;;;;;5024107;28;20095;-80
2021/01/20 02:30:50;;;;;;;18.33;16.35;;;6.80;95.40;;;;;;5023329;28;20037;-80
2021/01/20 02:33:21;;;;;;;18.58;14.48;;;6.80;95.60;;;;;;5003834;28;20101;-80
2021/01/20 02:35:51;;;;;;;17.85;15.75;;;6.80;95.60;;;;;;5002299;28;20049;-81
2021/01/20 02:38:18;;;;;;;23.48;17.45;;;6.70;95.60;;;;;;5004046;28;20037;-80
2021/01/20 02:40:44;;;;;;;22.52;15.52;;;6.80;95.70;;;;;;5016190;28;20095;-80
2021/01/20 02:43:10;;;;;;;20.25;15.45;;;6.80;95.60;;;;;;5054094;28;20042;-80
2021/01/20 02:45:36;;;;;;;21.80;16.42;;;6.80;95.60;;;;;;5017272;28;20099;-80
2021/01/20 02:48:02;;;;;;;18.30;16.15;;;6.80;95.50;;;;;;5024538;28;20037;-81
2021/01/20 02:50:28;;;;;;;20.88;15.45;;;6.80;95.50;;;;;;5040793;28;20054;-80
2021/01/20 02:53:06;;;;;;;17.75;15.13;;;6.80;95.40;;;;;;5024607;28;20046;-81
2021/01/20 02:55:33;;;;;;;17.02;14.63;;;6.80;95.50;;;;;;5030417;28;20057;-81
2021/01/20 02:58:03;;;;;;;17.83;14.85;;;6.70;95.30;;;;;;5038788;28;20413;-80
2021/01/20 03:00:31;;;;;;;20.52;15.43;;;6.80;95.50;;;;;;4998001;28;20064;-80
2021/01/20 03:03:00;;;;;;;15.98;13.40;;;6.70;95.40;;;;;;5036747;28;20090;-80
2021/01/20 03:05:28;;;;;;;16.20;13.98;;;6.70;95.30;;;;;;5042115;28;20068;-80
2021/01/20 03:07:56;;;;;;;19.52;15.05;;;6.70;95.30;;;;;;5021849;28;20128;-80
2021/01/20 03:10:23;;;;;;;21.48;14.05;;;6.80;95.50;;;;;;5037718;28;20505;-80
2021/01/20 03:12:49;;;;;;;19.15;15.50;;;6.80;95.50;;;;;;5028330;28;20050;-80
2021/01/20 03:15:23;;;;;;;19.88;16.23;;;6.80;95.40;;;;;;5025422;28;20030;-80
2021/01/20 03:17:49;;;;;;;18.45;15.90;;;6.80;95.50;;;;;;5032072;28;20045;-80
2021/01/20 03:20:15;;;;;;;17.40;14.43;;;6.80;95.50;;;;;;5038865;28;20029;-80
2021/01/20 03:22:41;;;;;;;19.17;13.63;;;6.80;95.60;;;;;;5030997;28;20041;-80
2021/01/20 03:25:08;;;;;;;20.02;14.45;;;6.80;95.60;;;;;;5046862;28;20060;-80
2021/01/20 03:27:34;;;;;;;23.05;15.15;;;6.80;95.40;;;;;;5024907;28;20099;-80
2021/01/20 03:30:00;;;;;;;20.10;15.88;;;6.70;95.50;;;;;;5047496;28;20033;-80
2021/01/20 03:32:26;;;;;;;21.08;13.77;;;6.80;95.60;;;;;;5042927;28;20089;-81
2021/01/20 03:34:51;;;;;;;20.67;15.20;;;6.80;95.50;;;;;;5032113;28;20067;-81
2021/01/20 03:37:17;;;;;;;20.25;15.25;;;6.70;95.50;;;;;;5038806;28;20131;-81
2021/01/20 03:39:43;;;;;;;17.92;13.05;;;6.70;95.50;;;;;;5024178;28;20052;-81
2021/01/20 03:42:09;;;;;;;14.43;9.43;;;6.70;95.50;;;;;;5023375;28;20650;-81
2021/01/20 03:44:35;;;;;;;13.88;10.30;;;6.70;95.30;;;;;;5041708;28;20073;-80
2021/01/20 03:47:00;;;;;;;18.08;13.52;;;6.70;95.40;;;;;;5021932;28;20087;-80
2021/01/20 03:49:26;;;;;;;17.95;14.80;;;6.70;95.50;;;;;;5025175;28;20091;-80
2021/01/20 03:51:52;;;;;;;18.63;15.55;;;6.70;95.50;;;;;;5043043;28;20471;-80
2021/01/20 03:54:18;;;;;;;15.75;11.82;;;6.70;95.50;;;;;;5043375;28;20092;-81
2021/01/20 03:56:46;;;;;;;17.60;13.50;;;6.70;95.40;;;;;;5010738;28;20034;-80
2021/01/20 03:59:11;;;;;;;18.13;14.13;;;6.70;95.50;;;;;;5010770;28;20072;-80
2021/01/20 04:01:37;;;;;;;20.45;13.70;;;6.70;95.50;;;;;;5060756;28;20279;-81
2021/01/20 04:04:03;;;;;;;19.27;13.57;;;6.70;95.20;;;;;;5038996;28;20081;-80
2021/01/20 04:06:29;;;;;;;18.50;13.57;;;6.80;95.30;;;;;;5044897;28;20141;-80
2021/01/20 04:08:55;;;;;;;15.88;12.73;;;6.80;95.40;;;;;;5009420;28;20873;-80
2021/01/20 04:11:21;;;;;;;11.80;10.07;;;6.80;95.20;;;;;;5046257;28;20136;-80
2021/01/20 04:13:47;;;;;;;16.67;12.10;;;6.80;95.10;;;;;;5023043;28;20124;-81
2021/01/20 04:16:14;;;;;;;17.65;12.55;;;6.80;95.60;;;;;;5040598;28;20056;-80
2021/01/20 04:18:40;;;;;;;17.95;14.55;;;6.80;95.40;;;;;;5019163;28;20053;-80
2021/01/20 04:21:06;;;;;;;16.55;12.70;;;6.80;95.40;;;;;;5044576;28;20049;-81
2021/01/20 04:23:36;;;;;;;15.02;13.23;;;6.80;95.40;;;;;;5025652;28;20076;-81
2021/01/20 04:26:04;;;;;;;20.48;13.50;;;6.80;95.50;;;;;;5009514;28;20117;-81
2021/01/20 04:28:31;;;;;;;16.40;13.27;;;6.80;95.50;;;;;;5028211;28;20029;-80
2021/01/20 04:30:58;;;;;;;15.00;12.77;;;6.80;95.30;;;;;;5018398;28;20533;-81
2021/01/20 04:33:24;;;;;;;13.50;11.52;;;6.80;95.30;;;;;;5055446;28;20397;-81
2021/01/20 04:35:49;;;;;;;16.70;13.10;;;6.80;95.30;;;;;;5032930;28;20041;-81
2021/01/20 04:38:15;;;;;;;9.20;7.70;;;6.90;95.40;;;;;;5030315;28;20033;-81
2021/01/20 04:40:41;;;;;;;15.73;11.30;;;7.00;94.90;;;;;;5023863;28;20042;-81
2021/01/20 04:43:06;;;;;;;15.48;11.50;;;6.90;95.20;;;;;;5050165;28;20467;-81
2021/01/20 04:45:32;;;;;;;17.20;11.27;;;6.90;95.20;;;;;;5040367;28;20185;-82
2021/01/20 04:48:00;;;;;;;16.95;12.57;;;6.90;95.20;;;;;;5033243;28;20497;-82
2021/01/20 04:50:29;;;;;;;14.55;12.82;;;6.90;95.30;;;;;;5030073;28;20278;-82
2021/01/20 04:52:59;;;;;;;19.48;11.95;;;7.00;95.40;;;;;;5043725;28;20052;-82
2021/01/20 04:55:26;;;;;;;18.88;12.40;;;7.00;95.30;;;;;;5032494;28;20042;-81
2021/01/20 04:57:53;;;;;;;20.20;14.27;;;7.00;95.30;;;;;;5045881;28;20045;-81
2021/01/20 05:00:20;;;;;;;13.05;11.02;;;7.00;95.40;;;;;;5010596;28;20033;-81
2021/01/20 05:02:47;;;;;;;20.80;13.57;;;7.00;95.20;;;;;;5043208;28;20077;-81
2021/01/20 05:05:14;;;;;;;15.32;13.27;;;7.00;95.40;;;;;;5007226;28;20107;-81
2021/01/20 05:07:39;;;;;;;13.93;12.43;;;7.00;95.50;;;;;;5016889;28;20057;-81
2021/01/20 05:10:06;;;;;;;13.30;11.70;;;7.00;95.60;;;;;;5010886;28;20046;-81
2021/01/20 05:12:35;;;;;;;15.75;12.98;;;7.00;95.30;;;;;;5024590;28;20057;-81
2021/01/20 05:15:03;;;;;;;13.55;11.85;;;7.00;95.40;;;;;;5029265;28;20041;-81
2021/01/20 05:17:34;;;;;;;15.93;13.05;;;7.00;95.40;;;;;;5029096;28;20456;-81
2021/01/20 05:20:00;;;;;;;15.52;12.20;;;7.10;95.40;;;;;;5037129;28;20029;-81
2021/01/20 05:22:25;;;;;;;16.48;12.02;;;7.00;95.60;;;;;;5043459;28;20049;-81
2021/01/20 05:24:59;;;;;;;16.52;12.32;;;7.10;95.40;;;;;;5035783;28;20386;-81
2021/01/20 05:27:31;;;;;;;13.65;11.30;;;7.00;95.20;;;;;;5039336;28;20044;-81
2021/01/20 05:30:05;;;;;;;16.77;13.38;;;7.10;95.30;;;;;;5034110;28;20044;-82
2021/01/20 05:32:32;;;;;;;16.05;11.90;;;7.00;94.90;;;;;;5042408;28;20045;-81
2021/01/20 05:35:00;;;;;;;13.60;11.02;;;7.00;95.10;;;;;;5046194;28;20044;-81
2021/01/20 05:37:26;;;;;;;13.18;9.98;;;7.10;95.10;;;;;;5024669;28;20048;-82
2021/01/20 05:40:13;;;;;;;14.02;10.98;;;7.10;95.10;;;;;;5047925;28;20080;-82
2021/01/20 05:42:53;;;;;;;13.60;10.30;;;7.10;95.30;;;;;;5026008;28;20061;-81
2021/01/20 05:45:21;;;;;;;12.48;10.80;;;7.20;95.00;;;;;;5057468;28;20040;-81
2021/01/20 05:48:19;;;;;;;14.73;10.38;;;7.10;95.20;;;;;;5027498;28;20513;-81
2021/01/20 05:50:56;;;;;;;14.50;9.68;;;7.10;94.60;;;;;;4979995;28;20074;-82
2021/01/20 05:53:22;;;;;;;11.95;8.50;;;7.10;94.70;;;;;;4953437;28;20078;-81
2021/01/20 05:56:01;;;;;;;10.45;9.35;;;7.10;94.90;;;;;;4975640;28;20058;-81
2021/01/20 05:58:38;;;;;;;10.82;8.82;;;7.20;94.70;;;;;;4974062;28;20042;-81
2021/01/20 06:01:11;;;;;;;11.90;8.60;;;7.20;94.60;;;;;;4975398;28;20058;-82
2021/01/20 06:03:37;;;;;;;11.10;9.18;;;7.20;94.70;;;;;;4952386;28;20042;-81
2021/01/20 06:06:05;;;;;;;10.30;8.75;;;7.20;94.80;;;;;;4976375;28;20047;-82
2021/01/20 06:08:34;;;;;;;12.25;9.63;;;7.20;94.70;;;;;;4953948;28;20054;-81
2021/01/20 06:11:04;;;;;;;11.63;8.63;;;7.30;94.70;;;;;;4968845;28;20063;-83
2021/01/20 06:13:31;;;;;;;11.80;7.47;;;7.20;94.60;;;;;;4972382;28;20057;-81
2021/01/20 06:16:00;;;;;;;10.23;8.30;;;7.20;94.50;;;;;;4960972;28;20130;-81
2021/01/20 06:18:35;;;;;;;10.27;8.02;;;7.20;94.50;;;;;;4966766;28;20118;-80
2021/01/20 06:21:01;;;;;;;12.38;9.05;;;7.20;94.60;;;;;;4968706;28;20054;-81
2021/01/20 06:23:29;;;;;;;9.95;8.13;;;7.30;94.70;;;;;;4969793;28;20042;-80
2021/01/20 06:26:10;;;;;;;9.90;8.48;;;7.20;94.60;;;;;;4984045;28;20067;-81
2021/01/20 06:28:45;;;;;;;10.40;6.57;;;7.20;94.70;;;;;;5057540;28;20060;-81
2021/01/20 06:31:12;;;;;;;13.15;8.82;;;7.20;94.50;;;;;;5047951;28;20037;-81
2021/01/20 06:33:38;;;;;;;9.88;8.32;;;7.30;94.50;;;;;;5026461;28;20132;-81
2021/01/20 06:36:04;;;;;;;9.40;7.95;;;7.20;94.50;;;;;;5028050;28;20101;-80
2021/01/20 06:38:38;;;;;;;13.70;8.25;;;7.30;94.50;;;;;;5028528;28;20055;-80
2021/01/20 06:41:10;;;;;;;11.20;7.35;;;7.30;94.30;;;;;;5047856;28;20041;-80
2021/01/20 06:43:47;;;;;;;13.27;8.98;;;7.30;94.30;;;;;;5045367;28;20041;-80
2021/01/20 06:46:28;;;;;;;11.23;8.13;;;7.30;94.30;;;;;;5025853;28;20045;-80
2021/01/20 06:49:03;;;;;;;12.15;8.15;;;7.30;94.20;;;;;;5036573;28;20136;-80
2021/01/20 06:51:30;;;;;;;11.45;8.82;;;7.30;94.40;;;;;;5067800;28;20343;-80
2021/01/20 06:54:00;;;;;;;8.60;7.53;;;7.30;94.50;;;;;;5026830;28;20095;-80
2021/01/20 06:56:37;;;;;;;7.45;5.82;;;7.30;94.40;;;;;;5031496;28;20046;-80
2021/01/20 06:59:23;;;;;;;9.88;8.35;;;7.30;94.20;;;;;;5032316;28;20057;-81
2021/01/20 07:02:09;;;;;;;12.38;8.10;;;7.30;94.40;;;;;;5032157;28;20485;-81
2021/01/20 07:04:40;;;;;;;10.20;8.68;;;7.40;93.90;;;;;;5040822;28;20049;-80
2021/01/20 07:07:10;;;;;;;9.85;8.30;;;7.40;94.30;;;;;;5043781;28;20052;-80
2021/01/20 07:09:57;;;;;;;11.10;8.23;;;7.50;94.50;;;;;;5019923;28;20085;-80
2021/01/20 07:12:26;;;;;;;10.18;7.57;;;7.40;94.30;;;;;;5033244;28;20571;-80
2021/01/20 07:14:53;;;;;;;9.43;6.78;;;7.40;94.20;;;;;;5041991;28;20037;-80
2021/01/20 07:17:19;;;;;;;10.70;7.95;;;7.40;94.30;;;;;;5044967;28;20125;-81
2021/01/20 07:19:47;;;;;;;8.73;6.72;;;7.40;94.40;;;;;;5028132;28;20048;-81
2021/01/20 07:22:13;;;;;;;12.05;8.38;;;7.40;94.40;;;;;;5049225;28;20065;-80
2021/01/20 07:24:39;;;;;;;12.32;8.98;;;7.40;94.70;;;;;;5045610;28;20034;-81
2021/01/20 07:27:13;;;;;;;10.43;7.88;;;7.40;94.90;;;;;;5043189;28;20137;-81
2021/01/20 07:29:40;;;;;;;11.88;8.73;;;7.30;94.80;;;;;;5035483;28;20037;-81
2021/01/20 07:32:06;;;;;;;9.85;7.97;;;7.30;95.10;;;;;;5048778;28;20076;-84
2021/01/20 07:34:38;;;;;;;9.27;8.25;;;7.30;95.10;;;;;;5047993;28;20049;-82
2021/01/20 07:37:08;;;;;;;11.88;7.97;;;7.30;95.10;;;;;;5058331;28;20072;-82
2021/01/20 07:39:34;;;;;;;9.95;7.85;;;7.30;95.10;;;;;;5030520;28;20124;-81
2021/01/20 07:41:59;;;;;;;7.80;7.00;;;7.30;95.10;;;;;;5056128;28;20136;-82
2021/01/20 07:44:27;;;;;;;8.93;7.07;;;7.30;95.00;;;;;;5061036;28;20044;-84
2021/01/20 07:47:03;;;;;;;9.38;7.32;;;7.30;94.80;;;;;;5044270;28;20096;-81
2021/01/20 07:49:29;;;;;;;10.05;7.43;;;7.40;94.70;;;;;;5041951;28;20729;-82
2021/01/20 07:52:13;;;;;;;9.85;7.20;;;7.40;94.70;;;;;;5036608;28;20076;-81
2021/01/20 07:54:50;;;;;;;10.15;6.65;;;7.40;94.40;;;;;;5029960;28;20473;-83
2021/01/20 07:57:20;;;;;;;10.82;6.80;;;7.40;94.60;;;;;;5046568;28;20159;-84
2021/01/20 08:00:03;;;;;;;8.15;6.80;;;7.40;94.50;;;;;;5037231;28;20045;-83
2021/01/20 08:02:29;;;;;;;10.13;6.50;;;7.40;94.40;;;;;;5029046;28;20132;-83
2021/01/20 08:05:02;;;;;;;8.25;6.53;;;7.40;94.40;;;;;;5063287;28;20037;-84
2021/01/20 08:07:28;;;;;;;8.25;6.63;;;7.40;94.50;;;;;;5047314;28;20116;-84
2021/01/20 08:09:53;;;;;;;8.00;6.43;;;7.50;94.60;;;;;;5045725;28;20915;-84
2021/01/20 08:12:24;;;;;;;7.68;6.68;;;7.40;94.40;;;;;;5061525;28;20549;-85
2021/01/20 08:14:51;;;;;;;8.02;6.53;;;7.50;94.30;;;;;;5040501;28;20041;-82
2021/01/20 08:17:21;;;;;;;7.45;6.30;;;7.60;94.10;;;;;;5049367;28;20496;-84
2021/01/20 08:19:53;;;;;;;6.32;5.13;;;7.60;93.90;;;;;;5034479;28;20083;-84
2021/01/20 08:22:19;;;;;;;8.60;6.13;;;7.60;93.90;;;;;;5035506;28;20047;-84
2021/01/20 08:24:46;;;;;;;8.85;6.43;;;7.60;94.00;;;;;;5037844;28;20048;-83
2021/01/20 08:27:13;;;;;;;10.13;6.75;;;7.70;94.00;;;;;;5041503;28;20053;-81
2021/01/20 08:29:53;;;;;;;8.70;6.82;;;7.70;93.90;;;;;;5035606;28;20045;-82
2021/01/20 08:32:19;;;;;;;8.25;6.35;;;7.70;93.80;;;;;;5061209;28;20069;-81
2021/01/20 08:34:46;;;;;;;7.28;6.22;;;7.70;93.90;;;;;;5051406;28;20056;-80
2021/01/20 08:37:17;;;;;;;7.43;6.03;;;7.70;94.10;;;;;;5065796;28;20133;-82
2021/01/20 08:39:55;;;;;;;6.75;5.55;;;7.70;94.00;;;;;;5032250;28;20045;-84
2021/01/20 08:42:29;;;;;;;6.50;5.55;;;7.80;93.60;;;;;;5053026;28;20423;-81
2021/01/20 08:45:20;;;;;;;6.57;5.70;;;7.80;94.00;;;;;;5040223;28;20049;-82
2021/01/20 08:47:51;;;;;;;6.07;5.10;;;7.80;92.90;;;;;;5068923;28;20080;-81
2021/01/20 08:50:29;;;;;;;9.60;6.07;;;7.80;93.60;;;;;;5016465;28;20054;-81
2021/01/20 08:52:59;;;;;;;6.03;4.38;;;7.80;93.20;;;;;;5050800;28;20049;-83
2021/01/20 08:55:28;;;;;;;6.65;4.55;;;7.80;93.40;;;;;;5032386;28;20080;-83
2021/01/20 08:58:19;;;;;;;6.80;5.45;;;7.80;93.50;;;;;;5039238;28;20045;-82
2021/01/20 09:00:46;;;;;;;5.65;4.38;;;7.90;93.30;;;;;;5061598;28;20060;-82
2021/01/20 09:03:19;;;;;;;8.15;4.93;;;7.90;93.30;;;;;;5034311;28;20068;-82
2021/01/20 09:05:46;;;;;;;8.20;5.07;;;8.00;93.70;;;;;;5030200;28;20057;-81
2021/01/20 09:08:13;;;;;;;5.75;4.45;;;8.10;93.40;;;;;;5034404;28;20112;-81
2021/01/20 09:10:39;;;;;;;6.50;5.20;;;8.10;93.30;;;;;;5045970;28;20132;-83
2021/01/20 09:13:05;;;;;;;6.20;4.47;;;8.10;93.20;;;;;;5055776;28;21444;-81
2021/01/20 09:15:30;;;;;;;7.13;4.72;;;8.20;93.30;;;;;;5060781;28;20096;-82
2021/01/20 09:17:57;;;;;;;5.15;4.45;;;8.20;93.10;;;;;;5040167;28;20109;-81
2021/01/20 09:20:23;;;;;;;5.95;5.07;;;8.20;92.70;;;;;;5051785;28;20045;-81
2021/01/20 09:22:49;;;;;;;6.22;4.75;;;8.30;93.20;;;;;;5071870;28;20057;-81
2021/01/20 09:25:15;;;;;;;7.63;4.65;;;8.30;93.00;;;;;;5047789;28;20105;-80
2021/01/20 09:27:41;;;;;;;6.13;4.63;;;8.30;92.80;;;;;;5044973;28;20060;-81
2021/01/20 09:30:08;;;;;;;5.45;3.95;;;8.40;92.90;;;;;;5059804;28;20052;-81
2021/01/20 09:32:40;;;;;;;6.35;4.60;;;8.40;92.80;;;;;;5039424;28;20053;-81
2021/01/20 09:35:08;;;;;;;4.75;4.10;;;8.40;93.00;;;;;;5062459;28;20075;-80
2021/01/20 09:37:34;;;;;;;5.05;4.47;;;8.40;92.70;;;;;;5044306;28;20060;-81
2021/01/20 09:40:00;;;;;;;5.05;3.70;;;8.50;92.60;;;;;;5054407;28;20045;-82
2021/01/20 09:42:25;;;;;;;5.10;4.57;;;8.40;92.60;;;;;;5032506;28;20140;-81
2021/01/20 09:44:51;;;;;;;5.40;4.13;;;8.50;92.60;;;;;;5061748;28;20048;-83
2021/01/20 09:47:17;;;;;;;5.70;4.10;;;8.50;92.60;;;;;;5030417;28;20060;-80
2021/01/20 09:49:43;;;;;;;4.75;4.25;;;8.50;92.60;;;;;;5038651;28;20694;-81
2021/01/20 09:52:10;;;;;;;4.38;3.90;;;8.50;92.50;;;;;;5024628;28;20081;-81
2021/01/20 09:54:36;;;;;;;4.57;4.05;;;8.60;92.70;;;;;;5016483;28;20167;-82
2021/01/20 09:57:03;;;;;;;4.95;4.30;;;8.60;92.60;;;;;;5025540;28;20049;-81
2021/01/20 09:59:29;;;;;;;5.63;4.38;;;8.60;92.80;;;;;;5048617;28;20113;-82
2021/01/20 10:01:55;;;;;;;6.07;4.03;;;8.60;93.30;;;;;;5058860;28;20075;-80
2021/01/20 10:04:20;;;;;;;6.25;3.58;;;8.70;92.70;;;;;;5043961;28;20041;-82
2021/01/20 10:06:46;;;;;;;6.05;3.95;;;8.70;92.70;;;;;;5079030;28;20460;-82
2021/01/20 10:09:13;;;;;;;4.35;3.13;;;8.70;92.70;;;;;;5054883;28;20045;-82
2021/01/20 10:11:39;;;;;;;4.93;3.80;;;8.70;92.50;;;;;;5049316;28;20036;-82
2021/01/20 10:14:05;;;;;;;6.40;3.50;;;8.80;92.60;;;;;;5054813;28;20571;-81
2021/01/20 10:16:31;;;;;;;4.32;3.42;;;8.70;92.70;;;;;;5062797;28;20308;-80
2021/01/20 10:18:57;;;;;;;6.30;3.58;;;8.80;92.60;;;;;;5044381;28;20056;-81
2021/01/20 10:21:24;;;;;;;4.35;3.70;;;8.80;92.60;;;;;;5081119;28;20049;-80
2021/01/20 10:23:49;;;;;;;6.07;3.80;;;8.80;92.80;;;;;;5067783;28;20044;-80
2021/01/20 10:26:15;;;;;;;4.25;3.55;;;8.90;92.70;;;;;;5047416;28;20094;-81
2021/01/20 10:28:43;;;;;;;3.92;3.38;;;8.90;93.10;;;;;;5053416;28;20354;-81
2021/01/20 10:31:09;;;;;;;3.83;3.13;;;8.90;93.10;;;;;;5025621;28;20052;-81
2021/01/20 10:33:35;;;;;;;3.67;3.10;;;9.00;92.70;;;;;;5054769;28;20430;-82
2021/01/20 10:36:00;;;;;;;5.50;3.38;;;9.00;92.50;;;;;;5046887;28;20052;-81
2021/01/20 10:38:26;;;;;;;3.78;3.22;;;9.00;92.80;;;;;;5041255;28;20080;-81
2021/01/20 10:40:52;;;;;;;3.60;3.08;;;8.90;92.60;;;;;;5064752;28;20479;-81
2021/01/20 10:43:18;;;;;;;4.68;3.30;;;9.00;92.80;;;;;;5047631;28;20059;-84
2021/01/20 10:45:44;;;;;;;4.00;3.17;;;8.90;92.60;;;;;;5046653;28;20061;-82
2021/01/20 10:48:10;;;;;;;3.85;3.17;;;8.90;92.30;;;;;;5054561;28;20540;-82
2021/01/20 10:50:36;;;;;;;5.85;3.00;;;9.00;92.80;;;;;;5034243;28;20314;-83
2021/01/20 10:53:01;;;;;;;3.30;2.70;;;9.00;92.60;;;;;;5068887;28;20060;-82
2021/01/20 10:55:27;;;;;;;4.53;2.67;;;9.10;92.70;;;;;;5026442;28;20056;-82
2021/01/20 10:57:53;;;;;;;4.68;3.00;;;9.10;92.60;;;;;;5037118;28;20069;-81
2021/01/20 11:00:19;;;;;;;3.40;2.53;;;9.10;92.70;;;;;;5039471;28;20033;-81
2021/01/20 11:02:45;;;;;;;4.53;2.97;;;9.10;92.30;;;;;;5034437;28;20385;-81
2021/01/20 11:05:11;;;;;;;3.65;2.70;;;9.10;92.60;;;;;;5029793;28;20061;-81
2021/01/20 11:07:36;;;;;;;4.22;2.80;;;9.10;92.80;;;;;;5034251;28;20041;-81
2021/01/20 11:10:05;;;;;;;3.63;2.40;;;9.10;92.60;;;;;;5025697;28;20059;-82
2021/01/20 11:12:31;;;;;;;3.50;2.70;;;9.10;92.30;;;;;;5059695;28;20668;-81
2021/01/20 11:14:57;;;;;;;4.28;2.50;;;9.10;92.20;;;;;;5040637;28;20049;-82
2021/01/20 11:17:24;;;;;;;4.82;2.53;;;9.20;92.20;;;;;;5051637;28;20026;-84
2021/01/20 11:19:49;;;;;;;3.92;2.58;;;9.10;92.40;;;;;;5032469;28;20582;-82
2021/01/20 11:22:16;;;;;;;4.38;2.80;;;9.20;92.40;;;;;;5054793;28;20044;-81
2021/01/20 11:24:42;;;;;;;3.30;2.47;;;9.20;91.80;;;;;;5056331;28;20051;-82
2021/01/20 11:27:07;;;;;;;3.65;2.13;;;9.30;91.70;;;;;;5045813;28;20095;-81
2021/01/20 11:29:33;;;;;;;4.78;2.17;;;9.20;91.70;;;;;;5039046;28;20108;-81
2021/01/20 11:31:59;;;;;;;3.10;1.65;;;9.30;91.60;;;;;;5038610;28;20065;-81
2021/01/20 11:34:25;;;;;;;3.97;2.35;;;9.30;91.40;;;;;;5026937;28;20061;-81
2021/01/20 11:36:50;;;;;;;2.13;1.45;;;9.30;91.50;;;;;;5026952;28;20045;-81
2021/01/20 11:39:16;;;;;;;4.10;1.67;;;9.40;91.00;;;;;;5080885;28;20037;-81
2021/01/20 11:41:42;;;;;;;4.35;2.00;;;9.40;91.10;;;;;;5046576;28;20041;-82
2021/01/20 11:44:08;;;;;;;2.78;1.38;;;9.40;91.00;;;;;;5067412;28;20572;-82
2021/01/20 11:46:36;;;;;;;2.55;1.73;;;9.50;90.30;;;;;;5041062;28;20424;-82
2021/01/20 11:49:07;;;;;;;4.35;2.20;;;9.50;90.10;;;;;;5035673;28;20053;-81
2021/01/20 11:51:37;;;;;;;2.92;1.90;;;9.50;90.10;;;;;;5049465;28;20129;-82
2021/01/20 11:54:02;;;;;;;4.78;1.80;;;9.50;89.90;;;;;;5050470;28;20556;-82
2021/01/20 11:56:28;;;;;;;2.90;1.48;;;9.50;89.40;;;;;;5046871;28;20068;-82
2021/01/20 11:58:54;;;;;;;2.88;1.83;;;9.60;89.40;;;;;;5047639;28;20053;-82
2021/01/20 12:01:22;;;;;;;2.38;1.60;;;9.60;88.70;;;;;;5069355;28;20046;-82
2021/01/20 12:03:49;;;;;;;2.58;1.70;;;9.60;87.30;;;;;;5025778;28;20052;-82
2021/01/20 12:06:15;;;;;;;5.43;1.98;;;9.70;88.70;;;;;;5047101;28;20060;-82
2021/01/20 12:08:41;;;;;;;2.10;1.50;;;9.70;87.90;;;;;;5046498;28;20041;-82
2021/01/20 12:11:06;;;;;;;2.67;1.48;;;9.70;87.30;;;;;;5067403;28;20113;-82
2021/01/20 12:13:32;;;;;;;2.05;1.33;;;9.70;86.20;;;;;;5045153;28;20118;-82
2021/01/20 12:15:58;;;;;;;2.63;1.63;;;9.70;85.80;;;;;;5071214;28;20114;-81
2021/01/20 12:18:24;;;;;;;1.80;1.00;;;9.60;86.70;;;;;;5052316;28;20053;-82
2021/01/20 12:20:49;;;;;;;2.00;1.40;;;9.70;87.20;;;;;;5058192;28;20037;-80
2021/01/20 12:23:16;;;;;;;3.63;1.85;;;9.70;86.90;;;;;;5048123;28;20059;-80
2021/01/20 12:25:41;;;;;;;2.60;1.83;;;9.70;87.10;;;;;;5063462;28;20100;-80
2021/01/20 12:28:07;;;;;;;4.97;2.10;;;9.80;87.40;;;;;;5029452;28;20463;-80
2021/01/20 12:30:33;;;;;;;2.30;1.60;;;9.90;87.60;;;;;;5038738;28;20085;-80
2021/01/20 12:33:00;;;;;;;3.00;1.70;;;9.80;86.00;;;;;;5048581;28;20037;-81
2021/01/20 12:35:26;;;;;;;2.22;1.33;;;9.90;86.10;;;;;;5052088;28;20041;-81
2021/01/20 12:37:52;;;;;;;2.10;1.30;;;9.90;86.70;;;;;;5036151;28;20049;-81
2021/01/20 12:40:18;;;;;;;2.90;1.60;;;9.90;86.60;;;;;;5025181;28;20049;-81
2021/01/20 12:42:43;;;;;;;3.03;1.77;;;9.90;87.30;;;;;;5058258;28;20087;-81
2021/01/20 12:45:10;;;;;;;2.80;1.73;;;10.00;86.20;;;;;;5046313;28;20137;-81
2021/01/20 12:47:36;;;;;;;2.90;1.70;;;10.00;86.40;;;;;;5043778;28;20739;-81
2021/01/20 12:50:04;;;;;;;3.30;2.03;;;10.00;84.90;;;;;;5043216;28;20049;-80